createdAt,value
2023-03-16T00:03:32.666Z,10.27
2023-03-16T00:07:15.910Z,9.40
2023-03-16T00:10:58.110Z,15.23
2023-03-16T00:14:40.389Z,13.83
2023-03-16T00:18:27.470Z,8.80
2023-03-16T00:22:09.436Z,15.98
2023-03-16T00:25:53.970Z,11.65
2023-03-16T00:29:36.197Z,10.88
2023-03-16T00:33:18.726Z,10.73
2023-03-16T00:37:00.873Z,11.55
2023-03-16T00:40:42.970Z,16.43
2023-03-16T00:44:24.940Z,10.02
2023-03-16T00:48:07.282Z,9.32
2023-03-16T00:51:49.330Z,11.93
2023-03-16T00:55:32.525Z,12.85
2023-03-16T00:59:16.223Z,11.13
2023-03-16T01:02:58.291Z,11.38
2023-03-16T01:06:41.963Z,8.75
2023-03-16T01:10:25.078Z,10.02
2023-03-16T01:14:07.215Z,6.75
2023-03-16T01:17:49.423Z,5.90
2023-03-16T01:21:34.107Z,12.05
2023-03-16T01:25:16.316Z,8.30
2023-03-16T01:28:58.522Z,13.80
2023-03-16T01:32:41.951Z,10.48
2023-03-16T01:36:24.215Z,13.00
2023-03-16T01:40:07.206Z,11.60
2023-03-16T01:43:49.801Z,9.57
2023-03-16T01:47:38.611Z,12.13
2023-03-16T01:51:23.553Z,15.95
2023-03-16T01:55:13.337Z,13.37
2023-03-16T01:58:58.912Z,11.23
2023-03-16T02:02:44.112Z,9.50
2023-03-16T02:06:26.546Z,11.80
2023-03-16T02:10:10.272Z,9.25
2023-03-16T02:13:52.990Z,10.55
2023-03-16T02:17:36.779Z,8.05
2023-03-16T02:21:54.777Z,13.77
2023-03-16T02:25:51.869Z,14.15
2023-03-16T02:30:08.899Z,14.20
2023-03-16T02:33:52.607Z,9.97
2023-03-16T02:37:34.727Z,18.55
2023-03-16T02:41:21.125Z,15.68
2023-03-16T02:45:03.526Z,19.13
2023-03-16T02:48:56.110Z,15.40
2023-03-16T02:52:39.611Z,13.05
2023-03-16T02:56:22.846Z,11.20
2023-03-16T03:00:18.187Z,14.43
2023-03-16T03:04:00.931Z,10.65
2023-03-16T03:07:43.378Z,13.57
2023-03-16T03:11:25.812Z,11.33
2023-03-16T03:15:09.052Z,9.95
2023-03-16T03:18:53.021Z,11.80
2023-03-16T03:22:35.319Z,10.83
2023-03-16T03:26:17.754Z,9.05
2023-03-16T03:29:59.782Z,11.93
2023-03-16T03:33:42.064Z,12.88
2023-03-16T03:37:25.589Z,9.13
2023-03-16T03:41:08.208Z,9.32
2023-03-16T03:44:53.281Z,13.73
2023-03-16T03:48:35.411Z,12.80
2023-03-16T03:52:17.433Z,13.15
2023-03-16T03:55:59.438Z,9.00
2023-03-16T03:59:44.039Z,11.17
2023-03-16T04:03:26.078Z,11.35
2023-03-16T04:07:08.639Z,14.65
2023-03-16T04:10:51.936Z,13.63
2023-03-16T04:14:34.352Z,14.23
2023-03-16T04:18:16.606Z,15.32
2023-03-16T04:21:58.716Z,15.48
2023-03-16T04:25:40.709Z,14.60
2023-03-16T04:29:22.702Z,12.70
2023-03-16T04:33:04.758Z,11.55
2023-03-16T04:36:46.816Z,8.93
2023-03-16T04:40:30.562Z,15.30
2023-03-16T04:44:12.641Z,10.27
2023-03-16T04:47:54.749Z,13.88
2023-03-16T04:51:38.135Z,14.80
2023-03-16T04:55:20.336Z,15.02
2023-03-16T04:59:02.815Z,15.05
2023-03-16T05:02:46.090Z,13.80
2023-03-16T05:06:28.287Z,12.50
2023-03-16T05:10:16.154Z,11.07
2023-03-16T05:13:58.513Z,10.60
2023-03-16T05:17:42.573Z,9.73
2023-03-16T05:21:25.178Z,12.85
2023-03-16T05:25:08.449Z,14.70
2023-03-16T05:28:51.688Z,8.63
2023-03-16T05:32:39.030Z,15.38
2023-03-16T05:36:21.385Z,16.42
2023-03-16T05:40:12.215Z,10.40
2023-03-16T05:43:54.532Z,11.20
2023-03-16T05:47:37.709Z,12.20
2023-03-16T05:51:20.188Z,18.33
2023-03-16T05:55:03.908Z,10.60
2023-03-16T05:58:46.404Z,10.15
2023-03-16T06:02:29.413Z,13.90
2023-03-16T06:06:12.069Z,12.02
2023-03-16T06:09:56.352Z,13.38
2023-03-16T06:13:43.403Z,9.05
2023-03-16T06:17:26.545Z,9.20
2023-03-16T06:21:09.870Z,10.75
2023-03-16T06:24:55.348Z,10.13
2023-03-16T06:28:38.388Z,13.70
2023-03-16T06:32:20.801Z,17.50
2023-03-16T06:36:02.925Z,7.65
2023-03-16T06:39:45.596Z,12.45
2023-03-16T06:43:28.331Z,13.02
2023-03-16T06:47:10.769Z,14.73
2023-03-16T06:50:52.884Z,10.75
2023-03-16T06:54:35.466Z,11.63
2023-03-16T06:58:17.953Z,8.35
2023-03-16T07:02:16.477Z,10.13
2023-03-16T07:06:00.664Z,8.47
2023-03-16T07:09:49.444Z,12.13
2023-03-16T07:27:12.440Z,9.05
2023-03-16T07:31:03.368Z,10.57
2023-03-16T07:35:03.520Z,13.50
2023-03-16T07:38:45.557Z,10.73
2023-03-16T07:43:13.790Z,6.85
2023-03-16T07:47:27.000Z,10.83
2023-03-16T07:51:10.695Z,8.00
2023-03-16T07:58:59.630Z,10.50
2023-03-16T08:03:14.136Z,9.07
2023-03-16T08:07:00.488Z,5.85
2023-03-16T08:14:46.472Z,12.40
2023-03-16T08:19:00.497Z,9.98
2023-03-16T08:22:46.477Z,9.30
2023-03-16T08:30:33.815Z,11.18
2023-03-16T08:38:33.874Z,11.35
2023-03-16T08:42:39.823Z,12.15
2023-03-16T08:46:21.899Z,9.88
2023-03-16T08:50:32.307Z,10.50
2023-03-16T08:54:15.525Z,10.40
2023-03-16T09:02:05.031Z,13.43
2023-03-16T09:06:22.803Z,10.83
2023-03-16T09:10:08.508Z,8.60
2023-03-16T09:17:54.671Z,9.80
2023-03-16T09:22:06.972Z,6.72
2023-03-16T09:25:49.356Z,9.35
2023-03-16T09:33:42.292Z,9.80
2023-03-16T09:38:10.005Z,9.85
2023-03-16T09:50:47.591Z,9.13
2023-03-16T09:58:34.307Z,7.80
2023-03-16T10:02:46.654Z,9.05
2023-03-16T10:06:29.001Z,10.27
2023-03-16T10:10:47.118Z,9.13
2023-03-16T10:15:05.101Z,9.70
2023-03-16T10:18:52.796Z,10.82
2023-03-16T10:23:08.225Z,10.40
2023-03-16T10:31:02.024Z,13.27
2023-03-16T10:43:26.777Z,8.43
2023-03-16T10:51:21.308Z,9.88
2023-03-16T10:55:37.766Z,12.00
2023-03-16T11:03:41.990Z,11.23
2023-03-16T11:11:28.332Z,10.75
2023-03-16T11:15:25.098Z,10.88
2023-03-16T11:19:33.232Z,14.03
2023-03-16T11:27:32.323Z,8.60
2023-03-16T11:31:54.332Z,7.53
2023-03-16T11:36:11.800Z,4.85
2023-03-16T11:49:00.723Z,8.45
2023-03-16T11:53:17.628Z,10.30
2023-03-16T11:57:34.966Z,7.68
2023-03-16T12:20:03.723Z,10.25
2023-03-16T12:29:06.919Z,7.50
2023-03-16T12:38:07.968Z,9.60
2023-03-16T12:59:44.637Z,10.23
2023-03-16T13:04:05.195Z,9.75
2023-03-16T13:17:33.469Z,10.23
2023-03-16T13:26:34.214Z,12.13
2023-03-16T13:40:05.042Z,11.93
2023-03-16T13:49:05.496Z,8.10
2023-03-16T14:01:49.372Z,10.93
2023-03-16T14:09:39.874Z,11.75
2023-03-16T14:17:34.086Z,11.57
2023-03-16T14:21:50.200Z,9.75
2023-03-16T14:38:48.801Z,14.90
2023-03-16T14:51:15.258Z,9.10
2023-03-16T14:59:14.939Z,9.05
2023-03-16T15:03:28.570Z,9.68
2023-03-16T15:11:34.633Z,11.90
2023-03-16T17:36:43.108Z,12.40
2023-03-16T17:50:18.164Z,11.88
2023-03-16T18:06:48.264Z,10.43
2023-03-16T18:10:33.117Z,9.37
2023-03-16T18:14:35.389Z,8.80
2023-03-16T18:18:22.841Z,11.20
2023-03-16T18:22:12.748Z,12.43
2023-03-16T18:26:13.116Z,9.18
2023-03-16T18:30:05.077Z,11.48
2023-03-16T18:34:07.589Z,11.63
2023-03-16T18:37:57.201Z,11.27
2023-03-16T18:41:39.780Z,12.32
2023-03-16T18:45:24.653Z,12.23
2023-03-16T18:49:31.879Z,13.07
2023-03-16T18:53:21.660Z,11.85
2023-03-16T18:57:06.538Z,13.30
2023-03-16T19:01:00.456Z,12.20
2023-03-16T19:04:43.154Z,11.68
2023-03-16T19:08:52.045Z,10.73
2023-03-16T19:12:34.521Z,11.98
2023-03-16T19:16:18.617Z,16.87
2023-03-16T19:20:00.833Z,14.07
2023-03-16T19:23:44.324Z,14.90
2023-03-16T19:27:38.342Z,12.47
2023-03-16T19:31:27.787Z,14.05
2023-03-16T19:35:16.741Z,11.02
2023-03-16T19:38:59.723Z,8.80
2023-03-16T19:42:42.953Z,7.50
2023-03-16T19:46:29.773Z,9.02
2023-03-16T19:50:24.220Z,9.68
2023-03-16T19:54:06.282Z,7.87
2023-03-16T19:57:51.354Z,8.63
2023-03-16T20:01:33.604Z,8.57
2023-03-16T20:05:18.347Z,12.07
2023-03-16T20:09:00.583Z,9.77
2023-03-16T20:12:42.790Z,10.35
2023-03-16T20:16:30.109Z,7.13
2023-03-16T20:20:28.233Z,7.55
2023-03-16T20:24:24.632Z,7.25
2023-03-16T20:28:20.968Z,8.57
2023-03-16T20:32:06.882Z,8.00
2023-03-16T20:35:50.166Z,7.85
2023-03-16T20:39:32.215Z,9.60
2023-03-16T20:43:27.696Z,8.80
2023-03-16T20:47:17.826Z,7.20
2023-03-16T20:51:00.631Z,8.23
2023-03-16T20:54:42.705Z,8.40
2023-03-16T20:58:26.962Z,7.07
2023-03-16T21:02:34.146Z,6.30
2023-03-16T21:06:23.727Z,5.00
2023-03-16T21:10:05.952Z,4.90
2023-03-16T21:13:48.336Z,4.30
2023-03-16T21:17:33.348Z,4.80
2023-03-16T21:21:17.421Z,4.13
2023-03-16T21:24:59.347Z,3.33
2023-03-16T21:28:41.735Z,4.35
2023-03-16T21:32:27.927Z,4.53
2023-03-16T21:36:19.074Z,5.32
2023-03-16T21:40:01.567Z,5.38
2023-03-16T21:43:44.899Z,4.82
2023-03-16T21:47:28.970Z,4.27
2023-03-16T21:51:16.895Z,4.30
2023-03-16T21:55:00.725Z,4.05
2023-03-16T21:58:46.539Z,4.13
2023-03-16T22:02:28.613Z,3.80
2023-03-16T22:06:13.523Z,3.50
2023-03-16T22:09:55.633Z,4.90
2023-03-16T22:13:38.627Z,4.65
2023-03-16T22:17:22.488Z,4.97
2023-03-16T22:21:32.375Z,5.70
2023-03-16T22:25:16.555Z,5.60
2023-03-16T22:29:00.794Z,5.63
2023-03-16T22:32:43.006Z,4.53
2023-03-16T22:36:25.141Z,4.37
2023-03-16T22:40:16.814Z,5.00
2023-03-16T22:43:59.922Z,6.63
2023-03-16T22:47:42.073Z,6.78
2023-03-16T22:51:28.938Z,5.40
2023-03-16T22:55:18.198Z,7.03
2023-03-16T22:59:13.889Z,8.20
2023-03-16T23:02:56.856Z,6.90
2023-03-16T23:06:38.861Z,7.55
2023-03-16T23:10:23.592Z,8.10
2023-03-16T23:14:14.338Z,11.90
2023-03-16T23:17:56.672Z,9.88
2023-03-16T23:21:38.767Z,10.57
2023-03-16T23:25:22.124Z,10.13
2023-03-16T23:29:04.264Z,13.43
2023-03-16T23:32:46.571Z,10.23
2023-03-16T23:36:28.612Z,11.60
2023-03-16T23:40:11.419Z,12.17
2023-03-16T23:43:54.382Z,9.93
2023-03-16T23:47:36.545Z,10.80
2023-03-16T23:51:25.931Z,11.73
2023-03-16T23:55:14.382Z,11.52
2023-03-16T23:58:56.635Z,18.35
